sensor_id;sensor_type;location;lat;lon;timestamp;temperature;humidity
37380;DHT22;23252;-33.992;18.480;2023-09-19T00:01:34;13.10;99.90
37380;DHT22;23252;-33.992;18.480;2023-09-19T00:04:01;13.10;99.90
37380;DHT22;23252;-33.992;18.480;2023-09-19T00:06:29;13.20;99.90
37380;DHT22;23252;-33.992;18.480;2023-09-19T00:08:58;13.20;99.90
37380;DHT22;23252;-33.992;18.480;2023-09-19T00:11:28;13.20;99.90
37380;DHT22;23252;-33.992;18.480;2023-09-19T00:13:55;13.20;99.90
37380;DHT22;23252;-33.992;18.480;2023-09-19T00:16:25;13.20;99.90
37380;DHT22;23252;-33.992;18.480;2023-09-19T00:18:53;13.30;99.90
37380;DHT22;23252;-33.992;18.480;2023-09-19T00:21:19;13.30;99.90
37380;DHT22;23252;-33.992;18.480;2023-09-19T00:23:46;13.30;99.90
37380;DHT22;23252;-33.992;18.480;2023-09-19T00:26:13;13.30;99.90
37380;DHT22;23252;-33.992;18.480;2023-09-19T00:28:40;13.30;99.90
37380;DHT22;23252;-33.992;18.480;2023-09-19T00:31:08;13.30;99.90
37380;DHT22;23252;-33.992;18.480;2023-09-19T00:33:35;13.30;99.90
37380;DHT22;23252;-33.992;18.480;2023-09-19T00:36:02;13.20;99.90
37380;DHT22;23252;-33.992;18.480;2023-09-19T00:38:31;13.20;99.90
37380;DHT22;23252;-33.992;18.480;2023-09-19T00:40:58;13.30;99.90
37380;DHT22;23252;-33.992;18.480;2023-09-19T00:43:25;13.30;99.90
37380;DHT22;23252;-33.992;18.480;2023-09-19T00:45:55;13.40;99.90
37380;DHT22;23252;-33.992;18.480;2023-09-19T00:48:22;13.40;99.90
37380;DHT22;23252;-33.992;18.480;2023-09-19T00:50:51;13.40;99.90
37380;DHT22;23252;-33.992;18.480;2023-09-19T00:53:22;13.30;99.90
37380;DHT22;23252;-33.992;18.480;2023-09-19T00:55:51;13.30;99.90
37380;DHT22;23252;-33.992;18.480;2023-09-19T00:58:19;13.30;99.90
37380;DHT22;23252;-33.992;18.480;2023-09-19T01:00:50;13.20;99.90
37380;DHT22;23252;-33.992;18.480;2023-09-19T01:03:17;13.20;99.90
37380;DHT22;23252;-33.992;18.480;2023-09-19T01:05:44;13.20;99.90
37380;DHT22;23252;-33.992;18.480;2023-09-19T01:08:11;13.20;99.90
37380;DHT22;23252;-33.992;18.480;2023-09-19T01:10:46;13.30;99.90
37380;DHT22;23252;-33.992;18.480;2023-09-19T01:20:00;13.30;99.90
37380;DHT22;23252;-33.992;18.480;2023-09-19T01:22:42;13.30;99.90
37380;DHT22;23252;-33.992;18.480;2023-09-19T01:26:03;13.30;99.90
37380;DHT22;23252;-33.992;18.480;2023-09-19T01:31:14;13.30;99.90
37380;DHT22;23252;-33.992;18.480;2023-09-19T01:33:58;13.30;99.90
37380;DHT22;23252;-33.992;18.480;2023-09-19T01:36:33;13.40;99.90
37380;DHT22;23252;-33.992;18.480;2023-09-19T01:39:07;13.40;99.90
37380;DHT22;23252;-33.992;18.480;2023-09-19T01:44:59;13.50;99.90
37380;DHT22;23252;-33.992;18.480;2023-09-19T01:47:28;13.50;99.90
37380;DHT22;23252;-33.992;18.480;2023-09-19T01:52:43;13.70;99.90
37380;DHT22;23252;-33.992;18.480;2023-09-19T01:55:12;13.70;99.90
37380;DHT22;23252;-33.992;18.480;2023-09-19T01:58:01;13.70;99.90
37380;DHT22;23252;-33.992;18.480;2023-09-19T02:00:34;13.80;99.90
37380;DHT22;23252;-33.992;18.480;2023-09-19T02:03:03;13.80;99.90
37380;DHT22;23252;-33.992;18.480;2023-09-19T02:05:30;13.80;99.90
37380;DHT22;23252;-33.992;18.480;2023-09-19T02:07:59;13.80;99.90
37380;DHT22;23252;-33.992;18.480;2023-09-19T02:10:26;13.80;99.90
37380;DHT22;23252;-33.992;18.480;2023-09-19T02:12:53;13.80;99.90
37380;DHT22;23252;-33.992;18.480;2023-09-19T02:15:19;13.80;99.90
37380;DHT22;23252;-33.992;18.480;2023-09-19T02:17:46;13.80;99.90
37380;DHT22;23252;-33.992;18.480;2023-09-19T02:20:13;13.80;99.90
37380;DHT22;23252;-33.992;18.480;2023-09-19T02:22:43;13.70;99.90
37380;DHT22;23252;-33.992;18.480;2023-09-19T02:25:10;13.60;99.90
37380;DHT22;23252;-33.992;18.480;2023-09-19T02:27:37;13.60;99.90
37380;DHT22;23252;-33.992;18.480;2023-09-19T02:30:06;13.60;99.90
37380;DHT22;23252;-33.992;18.480;2023-09-19T02:32:33;13.60;99.90
37380;DHT22;23252;-33.992;18.480;2023-09-19T02:35:02;13.70;99.90
37380;DHT22;23252;-33.992;18.480;2023-09-19T02:37:31;13.70;99.90
37380;DHT22;23252;-33.992;18.480;2023-09-19T02:39:59;13.70;99.90
37380;DHT22;23252;-33.992;18.480;2023-09-19T02:42:25;13.70;99.90
37380;DHT22;23252;-33.992;18.480;2023-09-19T02:44:52;13.70;99.90
37380;DHT22;23252;-33.992;18.480;2023-09-19T02:47:19;13.70;99.90
37380;DHT22;23252;-33.992;18.480;2023-09-19T02:49:45;13.70;99.90
37380;DHT22;23252;-33.992;18.480;2023-09-19T02:52:12;13.70;99.90
37380;DHT22;23252;-33.992;18.480;2023-09-19T02:54:40;13.70;99.90
37380;DHT22;23252;-33.992;18.480;2023-09-19T02:57:11;13.70;99.90
37380;DHT22;23252;-33.992;18.480;2023-09-19T02:59:40;13.70;99.90
37380;DHT22;23252;-33.992;18.480;2023-09-19T03:02:08;13.70;99.90
37380;DHT22;23252;-33.992;18.480;2023-09-19T03:04:35;13.70;99.90
37380;DHT22;23252;-33.992;18.480;2023-09-19T03:07:02;13.70;99.90
37380;DHT22;23252;-33.992;18.480;2023-09-19T03:09:30;13.70;99.90
37380;DHT22;23252;-33.992;18.480;2023-09-19T03:11:57;13.70;99.90
37380;DHT22;23252;-33.992;18.480;2023-09-19T03:14:24;13.70;99.90
37380;DHT22;23252;-33.992;18.480;2023-09-19T03:16:51;13.80;99.90
37380;DHT22;23252;-33.992;18.480;2023-09-19T03:19:18;13.80;99.90
37380;DHT22;23252;-33.992;18.480;2023-09-19T03:21:47;13.80;99.90
37380;DHT22;23252;-33.992;18.480;2023-09-19T03:24:15;13.90;99.90
37380;DHT22;23252;-33.992;18.480;2023-09-19T03:26:42;13.90;99.90
37380;DHT22;23252;-33.992;18.480;2023-09-19T03:29:08;13.90;99.90
37380;DHT22;23252;-33.992;18.480;2023-09-19T03:31:36;13.90;99.90
37380;DHT22;23252;-33.992;18.480;2023-09-19T03:34:07;13.90;99.90
37380;DHT22;23252;-33.992;18.480;2023-09-19T03:36:34;13.90;99.90
37380;DHT22;23252;-33.992;18.480;2023-09-19T03:39:01;13.90;99.90
37380;DHT22;23252;-33.992;18.480;2023-09-19T03:41:27;13.90;99.90
37380;DHT22;23252;-33.992;18.480;2023-09-19T03:43:54;13.90;99.90
37380;DHT22;23252;-33.992;18.480;2023-09-19T03:46:21;13.90;99.90
37380;DHT22;23252;-33.992;18.480;2023-09-19T03:48:47;13.90;99.90
37380;DHT22;23252;-33.992;18.480;2023-09-19T03:51:14;13.90;99.90
37380;DHT22;23252;-33.992;18.480;2023-09-19T03:53:41;13.90;99.90
37380;DHT22;23252;-33.992;18.480;2023-09-19T03:56:08;14.00;99.90
37380;DHT22;23252;-33.992;18.480;2023-09-19T03:58:35;14.00;99.90
37380;DHT22;23252;-33.992;18.480;2023-09-19T04:01:05;14.00;99.90
37380;DHT22;23252;-33.992;18.480;2023-09-19T04:03:35;14.00;99.90
37380;DHT22;23252;-33.992;18.480;2023-09-19T04:06:16;14.00;99.90
37380;DHT22;23252;-33.992;18.480;2023-09-19T04:08:43;14.00;99.90
37380;DHT22;23252;-33.992;18.480;2023-09-19T04:11:10;13.90;99.90
37380;DHT22;23252;-33.992;18.480;2023-09-19T04:13:37;13.80;99.90
37380;DHT22;23252;-33.992;18.480;2023-09-19T04:16:04;13.70;99.90
37380;DHT22;23252;-33.992;18.480;2023-09-19T04:18:33;13.70;99.90
37380;DHT22;23252;-33.992;18.480;2023-09-19T04:21:03;13.70;99.90
37380;DHT22;23252;-33.992;18.480;2023-09-19T04:23:32;13.60;99.90
37380;DHT22;23252;-33.992;18.480;2023-09-19T04:25:59;13.50;99.90
37380;DHT22;23252;-33.992;18.480;2023-09-19T04:28:26;13.50;99.90
37380;DHT22;23252;-33.992;18.480;2023-09-19T04:30:54;13.50;99.90
37380;DHT22;23252;-33.992;18.480;2023-09-19T04:33:21;13.40;99.90
37380;DHT22;23252;-33.992;18.480;2023-09-19T04:35:49;13.50;99.90
37380;DHT22;23252;-33.992;18.480;2023-09-19T04:38:18;13.50;99.90
37380;DHT22;23252;-33.992;18.480;2023-09-19T04:40:46;13.40;99.90
37380;DHT22;23252;-33.992;18.480;2023-09-19T04:43:13;13.40;99.90
37380;DHT22;23252;-33.992;18.480;2023-09-19T04:45:40;13.40;99.90
37380;DHT22;23252;-33.992;18.480;2023-09-19T04:48:06;13.40;99.90
37380;DHT22;23252;-33.992;18.480;2023-09-19T04:50:34;13.30;99.90
37380;DHT22;23252;-33.992;18.480;2023-09-19T04:53:01;13.30;99.90
37380;DHT22;23252;-33.992;18.480;2023-09-19T04:55:28;13.40;99.90
37380;DHT22;23252;-33.992;18.480;2023-09-19T04:57:56;13.50;99.90
37380;DHT22;23252;-33.992;18.480;2023-09-19T05:00:23;13.60;99.90
37380;DHT22;23252;-33.992;18.480;2023-09-19T05:02:51;13.70;99.90
37380;DHT22;23252;-33.992;18.480;2023-09-19T05:05:18;13.80;99.90
37380;DHT22;23252;-33.992;18.480;2023-09-19T05:07:48;13.90;99.90
37380;DHT22;23252;-33.992;18.480;2023-09-19T05:10:15;14.10;99.90
37380;DHT22;23252;-33.992;18.480;2023-09-19T05:12:44;14.20;99.90
37380;DHT22;23252;-33.992;18.480;2023-09-19T05:15:14;14.30;99.90
37380;DHT22;23252;-33.992;18.480;2023-09-19T05:17:51;14.30;99.90
37380;DHT22;23252;-33.992;18.480;2023-09-19T05:20:21;14.40;99.90
37380;DHT22;23252;-33.992;18.480;2023-09-19T05:23:02;14.40;99.90
37380;DHT22;23252;-33.992;18.480;2023-09-19T05:25:32;14.40;99.90
37380;DHT22;23252;-33.992;18.480;2023-09-19T05:28:03;14.50;99.90
37380;DHT22;23252;-33.992;18.480;2023-09-19T05:30:32;14.50;99.90
37380;DHT22;23252;-33.992;18.480;2023-09-19T05:32:59;14.50;99.90
37380;DHT22;23252;-33.992;18.480;2023-09-19T05:35:26;14.60;99.90
37380;DHT22;23252;-33.992;18.480;2023-09-19T05:37:53;14.60;99.90
37380;DHT22;23252;-33.992;18.480;2023-09-19T05:40:21;14.60;99.90
37380;DHT22;23252;-33.992;18.480;2023-09-19T05:42:48;14.60;99.90
37380;DHT22;23252;-33.992;18.480;2023-09-19T05:45:17;14.70;99.90
37380;DHT22;23252;-33.992;18.480;2023-09-19T05:47:51;14.80;99.90
37380;DHT22;23252;-33.992;18.480;2023-09-19T05:50:27;14.90;99.90
37380;DHT22;23252;-33.992;18.480;2023-09-19T05:52:54;14.90;99.90
37380;DHT22;23252;-33.992;18.480;2023-09-19T05:55:22;15.00;99.90
37380;DHT22;23252;-33.992;18.480;2023-09-19T05:57:52;15.10;99.90
37380;DHT22;23252;-33.992;18.480;2023-09-19T06:00:20;15.00;99.90
37380;DHT22;23252;-33.992;18.480;2023-09-19T06:02:54;14.90;99.90
37380;DHT22;23252;-33.992;18.480;2023-09-19T06:05:24;14.90;99.90
37380;DHT22;23252;-33.992;18.480;2023-09-19T06:07:53;14.80;99.90
37380;DHT22;23252;-33.992;18.480;2023-09-19T06:10:19;14.80;99.90
37380;DHT22;23252;-33.992;18.480;2023-09-19T06:12:49;14.70;99.90
37380;DHT22;23252;-33.992;18.480;2023-09-19T06:15:17;14.70;99.90
37380;DHT22;23252;-33.992;18.480;2023-09-19T06:17:52;14.60;99.90
37380;DHT22;23252;-33.992;18.480;2023-09-19T06:20:22;14.60;99.90
37380;DHT22;23252;-33.992;18.480;2023-09-19T06:22:49;14.60;99.90
37380;DHT22;23252;-33.992;18.480;2023-09-19T06:25:18;14.70;99.90
37380;DHT22;23252;-33.992;18.480;2023-09-19T06:27:52;14.70;99.90
37380;DHT22;23252;-33.992;18.480;2023-09-19T06:30:24;14.80;99.90
37380;DHT22;23252;-33.992;18.480;2023-09-19T06:32:56;14.80;99.90
37380;DHT22;23252;-33.992;18.480;2023-09-19T06:35:24;14.80;99.90
37380;DHT22;23252;-33.992;18.480;2023-09-19T06:37:52;14.80;99.90
37380;DHT22;23252;-33.992;18.480;2023-09-19T06:40:19;14.90;99.90
37380;DHT22;23252;-33.992;18.480;2023-09-19T06:42:47;14.80;99.90
37380;DHT22;23252;-33.992;18.480;2023-09-19T06:45:15;14.70;99.90
37380;DHT22;23252;-33.992;18.480;2023-09-19T06:47:45;14.70;99.90
37380;DHT22;23252;-33.992;18.480;2023-09-19T06:50:19;14.70;99.90
37380;DHT22;23252;-33.992;18.480;2023-09-19T06:52:53;14.70;99.90
37380;DHT22;23252;-33.992;18.480;2023-09-19T06:55:22;14.60;99.90
37380;DHT22;23252;-33.992;18.480;2023-09-19T06:57:54;14.60;99.90
37380;DHT22;23252;-33.992;18.480;2023-09-19T07:00:21;14.50;99.90
37380;DHT22;23252;-33.992;18.480;2023-09-19T07:03:02;14.60;99.90
37380;DHT22;23252;-33.992;18.480;2023-09-19T07:05:32;14.50;99.90
37380;DHT22;23252;-33.992;18.480;2023-09-19T07:07:59;14.40;99.90
37380;DHT22;23252;-33.992;18.480;2023-09-19T07:10:30;14.40;99.90
37380;DHT22;23252;-33.992;18.480;2023-09-19T07:13:01;14.30;99.90
37380;DHT22;23252;-33.992;18.480;2023-09-19T07:15:30;14.30;99.90
37380;DHT22;23252;-33.992;18.480;2023-09-19T07:17:59;14.30;99.90
37380;DHT22;23252;-33.992;18.480;2023-09-19T07:20:26;14.30;99.90
37380;DHT22;23252;-33.992;18.480;2023-09-19T07:22:58;14.40;99.90
37380;DHT22;23252;-33.992;18.480;2023-09-19T07:25:28;14.40;99.90
37380;DHT22;23252;-33.992;18.480;2023-09-19T07:27:55;14.50;99.90
37380;DHT22;23252;-33.992;18.480;2023-09-19T07:30:22;14.40;99.90
37380;DHT22;23252;-33.992;18.480;2023-09-19T07:32:49;14.50;99.90
37380;DHT22;23252;-33.992;18.480;2023-09-19T07:35:16;14.60;99.90
37380;DHT22;23252;-33.992;18.480;2023-09-19T07:37:48;14.60;99.90
37380;DHT22;23252;-33.992;18.480;2023-09-19T07:40:23;14.50;99.90
37380;DHT22;23252;-33.992;18.480;2023-09-19T07:42:53;14.60;99.90
37380;DHT22;23252;-33.992;18.480;2023-09-19T07:45:20;14.60;99.90
37380;DHT22;23252;-33.992;18.480;2023-09-19T07:47:50;14.60;99.90
37380;DHT22;23252;-33.992;18.480;2023-09-19T07:50:18;14.70;99.90
37380;DHT22;23252;-33.992;18.480;2023-09-19T07:52:49;14.70;99.90
37380;DHT22;23252;-33.992;18.480;2023-09-19T07:55:20;14.80;99.90
37380;DHT22;23252;-33.992;18.480;2023-09-19T07:57:49;14.90;99.90
37380;DHT22;23252;-33.992;18.480;2023-09-19T08:00:16;15.00;99.90
37380;DHT22;23252;-33.992;18.480;2023-09-19T08:02:44;14.90;99.90
37380;DHT22;23252;-33.992;18.480;2023-09-19T08:05:12;15.00;99.90
37380;DHT22;23252;-33.992;18.480;2023-09-19T08:07:44;15.00;99.90
37380;DHT22;23252;-33.992;18.480;2023-09-19T08:10:19;15.00;99.90
37380;DHT22;23252;-33.992;18.480;2023-09-19T08:12:48;15.00;99.90
37380;DHT22;23252;-33.992;18.480;2023-09-19T08:15:19;15.00;99.90
37380;DHT22;23252;-33.992;18.480;2023-09-19T08:17:47;15.10;99.90
37380;DHT22;23252;-33.992;18.480;2023-09-19T08:20:14;15.20;99.90
37380;DHT22;23252;-33.992;18.480;2023-09-19T08:22:51;15.30;99.90
37380;DHT22;23252;-33.992;18.480;2023-09-19T08:25:24;15.30;99.90
37380;DHT22;23252;-33.992;18.480;2023-09-19T08:27:55;15.30;99.90
37380;DHT22;23252;-33.992;18.480;2023-09-19T08:30:24;15.40;99.90
37380;DHT22;23252;-33.992;18.480;2023-09-19T08:32:59;15.50;99.90
37380;DHT22;23252;-33.992;18.480;2023-09-19T08:35:27;15.40;99.90
37380;DHT22;23252;-33.992;18.480;2023-09-19T08:37:54;15.40;99.90
37380;DHT22;23252;-33.992;18.480;2023-09-19T08:40:24;15.20;99.90
37380;DHT22;23252;-33.992;18.480;2023-09-19T08:42:53;15.10;99.90
37380;DHT22;23252;-33.992;18.480;2023-09-19T08:45:21;15.10;99.90
37380;DHT22;23252;-33.992;18.480;2023-09-19T08:50:26;15.10;99.90
37380;DHT22;23252;-33.992;18.480;2023-09-19T08:52:55;15.10;99.90
37380;DHT22;23252;-33.992;18.480;2023-09-19T08:55:29;15.10;99.90
37380;DHT22;23252;-33.992;18.480;2023-09-19T08:58:01;15.00;99.90
37380;DHT22;23252;-33.992;18.480;2023-09-19T09:00:32;15.10;99.90
37380;DHT22;23252;-33.992;18.480;2023-09-19T09:03:01;15.10;99.90
37380;DHT22;23252;-33.992;18.480;2023-09-19T09:05:30;15.00;99.90
37380;DHT22;23252;-33.992;18.480;2023-09-19T09:07:59;14.90;99.90
37380;DHT22;23252;-33.992;18.480;2023-09-19T09:10:26;15.00;99.90
37380;DHT22;23252;-33.992;18.480;2023-09-19T09:12:59;15.00;99.90
37380;DHT22;23252;-33.992;18.480;2023-09-19T09:15:25;15.00;99.90
37380;DHT22;23252;-33.992;18.480;2023-09-19T09:17:52;15.00;99.90
37380;DHT22;23252;-33.992;18.480;2023-09-19T09:20:20;15.00;99.90
37380;DHT22;23252;-33.992;18.480;2023-09-19T09:22:54;14.90;99.90
37380;DHT22;23252;-33.992;18.480;2023-09-19T09:25:21;15.00;99.90
37380;DHT22;23252;-33.992;18.480;2023-09-19T09:28:03;15.10;99.90
37380;DHT22;23252;-33.992;18.480;2023-09-19T09:30:34;15.30;99.90
37380;DHT22;23252;-33.992;18.480;2023-09-19T09:33:11;15.30;99.90
37380;DHT22;23252;-33.992;18.480;2023-09-19T09:35:59;15.50;99.90
37380;DHT22;23252;-33.992;18.480;2023-09-19T09:38:49;15.60;99.90
37380;DHT22;23252;-33.992;18.480;2023-09-19T09:41:19;15.70;99.90
37380;DHT22;23252;-33.992;18.480;2023-09-19T09:43:55;15.70;99.90
37380;DHT22;23252;-33.992;18.480;2023-09-19T09:46:25;15.80;99.90
37380;DHT22;23252;-33.992;18.480;2023-09-19T09:51:50;16.10;99.90
37380;DHT22;23252;-33.992;18.480;2023-09-19T09:54:29;16.20;99.90
37380;DHT22;23252;-33.992;18.480;2023-09-19T09:57:09;16.20;99.90
37380;DHT22;23252;-33.992;18.480;2023-09-19T09:59:56;16.30;99.90
37380;DHT22;23252;-33.992;18.480;2023-09-19T10:02:55;16.40;99.90
37380;DHT22;23252;-33.992;18.480;2023-09-19T10:05:22;16.40;99.90
37380;DHT22;23252;-33.992;18.480;2023-09-19T10:07:55;16.50;99.90
37380;DHT22;23252;-33.992;18.480;2023-09-19T10:10:39;16.60;99.90
37380;DHT22;23252;-33.992;18.480;2023-09-19T10:13:11;16.70;99.90
37380;DHT22;23252;-33.992;18.480;2023-09-19T10:15:43;16.70;99.90
37380;DHT22;23252;-33.992;18.480;2023-09-19T10:18:29;16.70;99.90
37380;DHT22;23252;-33.992;18.480;2023-09-19T10:20:59;16.90;99.90
37380;DHT22;23252;-33.992;18.480;2023-09-19T10:23:31;16.90;99.90
37380;DHT22;23252;-33.992;18.480;2023-09-19T10:26:01;17.10;99.90
37380;DHT22;23252;-33.992;18.480;2023-09-19T10:28:29;17.20;99.90
37380;DHT22;23252;-33.992;18.480;2023-09-19T10:30:57;17.20;99.90
37380;DHT22;23252;-33.992;18.480;2023-09-19T10:33:26;17.20;99.90
37380;DHT22;23252;-33.992;18.480;2023-09-19T10:35:58;17.40;99.90
37380;DHT22;23252;-33.992;18.480;2023-09-19T10:38:27;17.50;99.90
37380;DHT22;23252;-33.992;18.480;2023-09-19T10:40:56;17.60;99.90
37380;DHT22;23252;-33.992;18.480;2023-09-19T10:43:30;17.60;99.90
37380;DHT22;23252;-33.992;18.480;2023-09-19T10:46:08;17.50;99.90
37380;DHT22;23252;-33.992;18.480;2023-09-19T10:48:40;17.40;99.90
37380;DHT22;23252;-33.992;18.480;2023-09-19T10:51:20;17.50;99.90
37380;DHT22;23252;-33.992;18.480;2023-09-19T10:54:11;17.50;99.90
37380;DHT22;23252;-33.992;18.480;2023-09-19T10:56:44;17.50;99.90
37380;DHT22;23252;-33.992;18.480;2023-09-19T10:59:19;17.40;99.90
37380;DHT22;23252;-33.992;18.480;2023-09-19T11:01:47;17.40;99.90
37380;DHT22;23252;-33.992;18.480;2023-09-19T11:04:34;17.40;99.90
37380;DHT22;23252;-33.992;18.480;2023-09-19T11:07:09;17.40;99.90
37380;DHT22;23252;-33.992;18.480;2023-09-19T11:14:58;17.10;99.90
37380;DHT22;23252;-33.992;18.480;2023-09-19T11:17:35;17.20;99.90
37380;DHT22;23252;-33.992;18.480;2023-09-19T11:30:35;17.80;99.90
37380;DHT22;23252;-33.992;18.480;2023-09-19T11:33:22;17.80;99.90
37380;DHT22;23252;-33.992;18.480;2023-09-19T11:46:27;17.10;99.90
37380;DHT22;23252;-33.992;18.480;2023-09-19T11:48:54;16.90;99.90
37380;DHT22;23252;-33.992;18.480;2023-09-19T11:51:23;16.80;99.90
37380;DHT22;23252;-33.992;18.480;2023-09-19T11:53:55;16.80;99.90
37380;DHT22;23252;-33.992;18.480;2023-09-19T11:56:23;17.00;99.90
37380;DHT22;23252;-33.992;18.480;2023-09-19T11:58:55;17.20;99.90
37380;DHT22;23252;-33.992;18.480;2023-09-19T12:01:33;17.40;99.90
37380;DHT22;23252;-33.992;18.480;2023-09-19T12:04:04;17.50;99.90
37380;DHT22;23252;-33.992;18.480;2023-09-19T12:06:31;17.70;99.90
37380;DHT22;23252;-33.992;18.480;2023-09-19T12:09:01;17.50;99.90
37380;DHT22;23252;-33.992;18.480;2023-09-19T12:11:33;17.20;99.90
37380;DHT22;23252;-33.992;18.480;2023-09-19T12:14:00;16.90;99.90
37380;DHT22;23252;-33.992;18.480;2023-09-19T12:16:27;16.80;99.90
37380;DHT22;23252;-33.992;18.480;2023-09-19T12:18:57;16.80;99.90
37380;DHT22;23252;-33.992;18.480;2023-09-19T12:21:24;16.70;99.90
37380;DHT22;23252;-33.992;18.480;2023-09-19T12:24:03;16.70;99.90
37380;DHT22;23252;-33.992;18.480;2023-09-19T12:26:40;16.40;99.90
37380;DHT22;23252;-33.992;18.480;2023-09-19T12:29:15;16.20;99.90
37380;DHT22;23252;-33.992;18.480;2023-09-19T12:31:54;15.90;99.90
37380;DHT22;23252;-33.992;18.480;2023-09-19T12:34:27;15.80;99.90
37380;DHT22;23252;-33.992;18.480;2023-09-19T12:37:11;15.90;99.90
37380;DHT22;23252;-33.992;18.480;2023-09-19T12:39:40;16.10;99.90
37380;DHT22;23252;-33.992;18.480;2023-09-19T12:42:13;16.00;99.90
37380;DHT22;23252;-33.992;18.480;2023-09-19T12:44:45;15.90;99.90
37380;DHT22;23252;-33.992;18.480;2023-09-19T12:47:14;15.90;99.90
37380;DHT22;23252;-33.992;18.480;2023-09-19T12:50:11;15.80;99.90
37380;DHT22;23252;-33.992;18.480;2023-09-19T12:52:49;15.50;99.90
37380;DHT22;23252;-33.992;18.480;2023-09-19T12:55:30;15.40;99.90
37380;DHT22;23252;-33.992;18.480;2023-09-19T12:58:14;15.40;99.90
37380;DHT22;23252;-33.992;18.480;2023-09-19T13:00:46;15.30;99.90
37380;DHT22;23252;-33.992;18.480;2023-09-19T13:03:18;15.30;99.90
37380;DHT22;23252;-33.992;18.480;2023-09-19T13:06:02;15.20;99.90
37380;DHT22;23252;-33.992;18.480;2023-09-19T13:08:34;15.20;99.90
37380;DHT22;23252;-33.992;18.480;2023-09-19T13:11:10;15.20;99.90
37380;DHT22;23252;-33.992;18.480;2023-09-19T13:13:48;15.20;99.90
37380;DHT22;23252;-33.992;18.480;2023-09-19T13:16:20;15.30;99.90
37380;DHT22;23252;-33.992;18.480;2023-09-19T13:18:54;15.50;99.90
37380;DHT22;23252;-33.992;18.480;2023-09-19T13:21:32;15.80;99.90
37380;DHT22;23252;-33.992;18.480;2023-09-19T13:24:23;16.00;99.90
37380;DHT22;23252;-33.992;18.480;2023-09-19T13:26:54;16.00;99.90
37380;DHT22;23252;-33.992;18.480;2023-09-19T13:29:21;16.30;99.90
37380;DHT22;23252;-33.992;18.480;2023-09-19T13:31:49;16.30;99.90
37380;DHT22;23252;-33.992;18.480;2023-09-19T13:34:16;16.30;99.90
37380;DHT22;23252;-33.992;18.480;2023-09-19T13:36:44;16.20;99.90
37380;DHT22;23252;-33.992;18.480;2023-09-19T13:39:11;16.40;99.90
37380;DHT22;23252;-33.992;18.480;2023-09-19T13:41:43;16.20;99.90
37380;DHT22;23252;-33.992;18.480;2023-09-19T13:44:11;16.10;99.90
37380;DHT22;23252;-33.992;18.480;2023-09-19T13:46:38;16.10;99.90
37380;DHT22;23252;-33.992;18.480;2023-09-19T13:49:04;16.10;99.90
37380;DHT22;23252;-33.992;18.480;2023-09-19T13:51:32;16.00;99.90
37380;DHT22;23252;-33.992;18.480;2023-09-19T13:53:59;16.00;99.90
37380;DHT22;23252;-33.992;18.480;2023-09-19T13:56:28;16.00;99.90
37380;DHT22;23252;-33.992;18.480;2023-09-19T13:58:57;16.10;99.90
37380;DHT22;23252;-33.992;18.480;2023-09-19T14:01:24;16.10;99.90
37380;DHT22;23252;-33.992;18.480;2023-09-19T14:03:55;16.10;99.90
37380;DHT22;23252;-33.992;18.480;2023-09-19T14:06:23;16.00;99.90
37380;DHT22;23252;-33.992;18.480;2023-09-19T14:08:50;16.00;99.90
37380;DHT22;23252;-33.992;18.480;2023-09-19T14:11:17;16.00;99.90
37380;DHT22;23252;-33.992;18.480;2023-09-19T14:13:44;15.90;99.90
37380;DHT22;23252;-33.992;18.480;2023-09-19T14:16:15;15.90;99.90
37380;DHT22;23252;-33.992;18.480;2023-09-19T14:18:42;15.90;99.90
37380;DHT22;23252;-33.992;18.480;2023-09-19T14:21:11;15.90;99.90
37380;DHT22;23252;-33.992;18.480;2023-09-19T14:23:38;15.80;99.90
37380;DHT22;23252;-33.992;18.480;2023-09-19T14:26:05;15.90;99.90
37380;DHT22;23252;-33.992;18.480;2023-09-19T14:28:34;15.90;99.90
37380;DHT22;23252;-33.992;18.480;2023-09-19T14:31:10;16.00;99.90
37380;DHT22;23252;-33.992;18.480;2023-09-19T14:33:38;16.00;99.90
37380;DHT22;23252;-33.992;18.480;2023-09-19T14:36:06;16.00;99.90
37380;DHT22;23252;-33.992;18.480;2023-09-19T14:38:37;16.00;99.90
37380;DHT22;23252;-33.992;18.480;2023-09-19T14:41:05;15.90;99.90
37380;DHT22;23252;-33.992;18.480;2023-09-19T14:43:32;15.90;99.90
37380;DHT22;23252;-33.992;18.480;2023-09-19T14:46:08;15.90;99.90
37380;DHT22;23252;-33.992;18.480;2023-09-19T14:48:38;15.90;99.90
37380;DHT22;23252;-33.992;18.480;2023-09-19T14:51:08;15.90;99.90
37380;DHT22;23252;-33.992;18.480;2023-09-19T14:53:38;15.90;99.90
37380;DHT22;23252;-33.992;18.480;2023-09-19T14:56:07;16.00;99.90
37380;DHT22;23252;-33.992;18.480;2023-09-19T14:58:34;16.10;99.90
37380;DHT22;23252;-33.992;18.480;2023-09-19T15:01:12;16.10;99.90
37380;DHT22;23252;-33.992;18.480;2023-09-19T15:03:39;16.10;99.90
37380;DHT22;23252;-33.992;18.480;2023-09-19T15:06:10;16.10;99.90
37380;DHT22;23252;-33.992;18.480;2023-09-19T15:08:46;16.10;99.90
37380;DHT22;23252;-33.992;18.480;2023-09-19T15:11:17;16.10;99.90
37380;DHT22;23252;-33.992;18.480;2023-09-19T15:13:45;16.10;99.90
37380;DHT22;23252;-33.992;18.480;2023-09-19T15:16:12;16.00;99.90
37380;DHT22;23252;-33.992;18.480;2023-09-19T15:18:41;15.90;99.90
37380;DHT22;23252;-33.992;18.480;2023-09-19T15:21:09;15.80;99.90
37380;DHT22;23252;-33.992;18.480;2023-09-19T15:23:38;15.60;99.90
37380;DHT22;23252;-33.992;18.480;2023-09-19T15:26:13;15.50;99.90
37380;DHT22;23252;-33.992;18.480;2023-09-19T15:28:46;15.60;99.90
37380;DHT22;23252;-33.992;18.480;2023-09-19T15:31:14;15.50;99.90
37380;DHT22;23252;-33.992;18.480;2023-09-19T15:33:40;15.50;99.90
37380;DHT22;23252;-33.992;18.480;2023-09-19T15:36:12;15.40;99.90
37380;DHT22;23252;-33.992;18.480;2023-09-19T15:39:00;15.30;99.90
37380;DHT22;23252;-33.992;18.480;2023-09-19T15:43:55;15.20;99.90
37380;DHT22;23252;-33.992;18.480;2023-09-19T15:46:25;15.10;99.90
37380;DHT22;23252;-33.992;18.480;2023-09-19T15:48:56;15.00;99.90
37380;DHT22;23252;-33.992;18.480;2023-09-19T15:51:23;15.00;99.90
37380;DHT22;23252;-33.992;18.480;2023-09-19T15:53:51;14.90;99.90
37380;DHT22;23252;-33.992;18.480;2023-09-19T15:56:20;14.80;99.90
37380;DHT22;23252;-33.992;18.480;2023-09-19T15:58:53;14.80;99.90
37380;DHT22;23252;-33.992;18.480;2023-09-19T16:01:23;14.70;99.90
37380;DHT22;23252;-33.992;18.480;2023-09-19T16:03:51;14.60;99.90
37380;DHT22;23252;-33.992;18.480;2023-09-19T16:06:21;14.60;99.90
37380;DHT22;23252;-33.992;18.480;2023-09-19T16:08:51;14.60;99.90
37380;DHT22;23252;-33.992;18.480;2023-09-19T16:11:18;14.50;99.90
37380;DHT22;23252;-33.992;18.480;2023-09-19T16:13:48;14.50;99.90